createdAt,value
2023-01-26T00:01:10.812Z,13.03
2023-01-26T00:03:37.794Z,15.90
2023-01-26T00:06:10.268Z,14.03
2023-01-26T00:08:44.947Z,14.27
2023-01-26T00:11:14.497Z,13.67
2023-01-26T00:13:41.721Z,13.43
2023-01-26T00:16:11.021Z,15.00
2023-01-26T00:18:39.103Z,14.40
2023-01-26T00:21:06.778Z,13.97
2023-01-26T00:23:34.876Z,16.63
2023-01-26T00:26:02.270Z,21.77
2023-01-26T00:28:29.361Z,13.10
2023-01-26T00:31:05.719Z,14.73
2023-01-26T00:33:32.640Z,15.00
2023-01-26T00:35:59.222Z,13.07
2023-01-26T00:38:27.185Z,16.47
2023-01-26T00:40:53.737Z,14.27
2023-01-26T00:43:20.732Z,14.87
2023-01-26T00:45:48.338Z,10.10
2023-01-26T00:48:15.179Z,11.87
2023-01-26T00:50:41.721Z,13.47
2023-01-26T00:53:09.926Z,15.83
2023-01-26T00:55:36.737Z,14.20
2023-01-26T00:58:05.596Z,11.67
2023-01-26T01:00:33.832Z,12.53
2023-01-26T01:03:00.464Z,10.97
2023-01-26T01:05:29.292Z,11.30
2023-01-26T01:07:55.958Z,12.87
2023-01-26T01:10:22.830Z,15.50
2023-01-26T01:12:50.056Z,14.20
2023-01-26T01:15:16.751Z,11.93
2023-01-26T01:17:43.264Z,12.47
2023-01-26T01:20:11.822Z,13.43
2023-01-26T01:22:41.031Z,14.30
2023-01-26T01:25:07.887Z,14.40
2023-01-26T01:27:34.424Z,12.17
2023-01-26T01:30:00.969Z,12.67
2023-01-26T01:32:27.463Z,12.27
2023-01-26T01:34:54.043Z,11.93
2023-01-26T01:37:21.245Z,10.57
2023-01-26T01:39:49.243Z,12.97
2023-01-26T01:42:15.781Z,12.37
2023-01-26T01:44:43.178Z,12.17
2023-01-26T01:47:23.166Z,13.77
2023-01-26T01:49:52.586Z,15.60
2023-01-26T01:52:31.438Z,12.30
2023-01-26T01:55:08.906Z,12.00
2023-01-26T01:57:58.936Z,11.63
2023-01-26T02:00:26.719Z,10.53
2023-01-26T02:03:19.038Z,9.97
2023-01-26T02:06:10.737Z,11.43
2023-01-26T02:08:44.715Z,9.00
2023-01-26T02:11:16.502Z,9.20
2023-01-26T02:13:46.191Z,7.93
2023-01-26T02:16:12.898Z,7.30
2023-01-26T02:18:39.425Z,7.13
2023-01-26T02:21:09.707Z,7.27
2023-01-26T02:23:51.077Z,7.27
2023-01-26T02:26:23.541Z,7.63
2023-01-26T02:28:51.463Z,6.37
2023-01-26T02:31:19.231Z,7.63
2023-01-26T02:33:47.486Z,7.47
2023-01-26T02:36:26.498Z,6.67
2023-01-26T02:38:54.338Z,7.07
2023-01-26T02:41:39.442Z,6.37
2023-01-26T02:44:09.959Z,6.90
2023-01-26T02:46:36.680Z,6.13
2023-01-26T02:49:22.294Z,6.43
2023-01-26T02:51:49.072Z,7.17
2023-01-26T02:54:35.852Z,7.20
2023-01-26T02:57:03.545Z,8.50
2023-01-26T02:59:30.191Z,7.17
2023-01-26T03:01:58.215Z,10.00
2023-01-26T03:04:25.093Z,11.93
2023-01-26T03:06:52.353Z,9.33
2023-01-26T03:09:18.887Z,9.70
2023-01-26T03:11:46.886Z,11.43
2023-01-26T03:14:15.006Z,9.13
2023-01-26T03:16:41.829Z,11.10
2023-01-26T03:19:31.809Z,9.90
2023-01-26T03:22:17.876Z,7.60
2023-01-26T03:25:03.075Z,7.70
2023-01-26T03:27:36.425Z,10.83
2023-01-26T03:30:03.367Z,9.23
2023-01-26T03:32:30.715Z,8.53
2023-01-26T03:35:00.420Z,9.33
2023-01-26T03:37:27.088Z,8.80
2023-01-26T03:40:25.262Z,10.53
2023-01-26T03:43:10.507Z,8.40
2023-01-26T03:45:55.757Z,8.37
2023-01-26T03:48:43.645Z,10.13
2023-01-26T03:51:28.801Z,9.47
2023-01-26T03:54:14.853Z,10.90
2023-01-26T03:56:41.479Z,7.70
2023-01-26T03:59:15.352Z,9.10
2023-01-26T04:02:05.196Z,12.00
2023-01-26T04:04:51.708Z,8.70
2023-01-26T04:07:39.929Z,8.17
2023-01-26T04:10:06.823Z,9.33
2023-01-26T04:12:33.738Z,10.13
2023-01-26T04:15:37.517Z,9.70
2023-01-26T04:18:26.904Z,9.43
2023-01-26T04:21:13.096Z,8.17
2023-01-26T04:23:41.870Z,8.87
2023-01-26T04:26:08.689Z,7.37
2023-01-26T04:28:36.015Z,7.17
2023-01-26T04:31:04.641Z,7.60
2023-01-26T04:33:33.284Z,9.53
2023-01-26T04:36:07.690Z,9.23
2023-01-26T04:38:37.162Z,9.00
2023-01-26T04:41:03.914Z,6.33
2023-01-26T04:43:36.380Z,7.27
2023-01-26T04:46:05.940Z,7.60
2023-01-26T04:48:35.092Z,8.33
2023-01-26T04:51:04.980Z,6.20
2023-01-26T04:53:33.396Z,6.80
2023-01-26T04:56:00.377Z,6.07
2023-01-26T04:58:27.099Z,6.13
2023-01-26T05:00:55.616Z,6.87
2023-01-26T05:03:23.556Z,7.23
2023-01-26T05:05:52.424Z,8.83
2023-01-26T05:08:21.729Z,6.70
2023-01-26T05:10:48.619Z,5.73
2023-01-26T05:13:46.392Z,5.47
2023-01-26T05:16:16.705Z,5.70
2023-01-26T05:19:02.027Z,5.77
2023-01-26T05:21:39.765Z,6.60
2023-01-26T05:24:06.901Z,9.53
2023-01-26T05:27:18.123Z,5.97
2023-01-26T05:29:46.909Z,7.60
2023-01-26T05:32:14.181Z,7.47
2023-01-26T05:34:41.204Z,5.83
2023-01-26T05:37:08.690Z,5.80
2023-01-26T05:39:36.483Z,6.53
2023-01-26T05:42:05.241Z,6.30
2023-01-26T05:45:01.114Z,5.80
2023-01-26T05:47:28.695Z,4.93
2023-01-26T05:49:55.249Z,4.80
2023-01-26T05:52:26.501Z,4.63
2023-01-26T05:54:53.381Z,4.70
2023-01-26T05:57:19.918Z,3.30
2023-01-26T06:00:07.946Z,4.20
2023-01-26T06:02:40.683Z,5.23
2023-01-26T06:05:10.851Z,4.40
2023-01-26T06:07:38.118Z,4.33
2023-01-26T06:10:11.842Z,4.43
2023-01-26T06:12:54.955Z,5.07
2023-01-26T06:16:02.988Z,6.37
2023-01-26T06:18:30.753Z,6.17
2023-01-26T06:21:03.170Z,5.20
2023-01-26T06:23:29.875Z,6.03
2023-01-26T06:26:01.987Z,5.60
2023-01-26T06:28:30.913Z,5.67
2023-01-26T06:31:01.621Z,7.23
2023-01-26T06:33:29.467Z,6.50
2023-01-26T06:35:56.600Z,5.93
2023-01-26T06:38:23.441Z,4.97
2023-01-26T06:40:50.626Z,5.97
2023-01-26T06:43:17.183Z,6.93
2023-01-26T06:45:43.801Z,5.20
2023-01-26T06:48:10.638Z,6.20
2023-01-26T06:50:37.461Z,5.03
2023-01-26T06:53:26.049Z,8.17
2023-01-26T06:56:09.199Z,13.37
2023-01-26T06:58:49.648Z,13.07
2023-01-26T07:01:51.397Z,12.57
2023-01-26T07:04:18.673Z,9.83
2023-01-26T07:06:45.488Z,10.20
2023-01-26T07:09:12.144Z,8.03
2023-01-26T07:11:38.688Z,8.80
2023-01-26T07:14:05.482Z,5.40
2023-01-26T07:16:33.824Z,4.83
2023-01-26T07:19:00.736Z,5.93
2023-01-26T07:21:27.377Z,4.67
2023-01-26T07:23:55.622Z,6.17
2023-01-26T07:26:22.316Z,6.60
2023-01-26T07:28:48.979Z,5.80
2023-01-26T07:31:15.699Z,5.20
2023-01-26T07:33:42.437Z,5.13
2023-01-26T07:36:11.015Z,8.37
2023-01-26T07:38:37.752Z,4.80
2023-01-26T07:41:07.503Z,7.67
2023-01-26T07:43:38.497Z,5.37
2023-01-26T07:46:10.569Z,8.30
2023-01-26T07:48:37.235Z,5.67
2023-01-26T07:51:05.224Z,5.13
2023-01-26T07:53:34.143Z,6.37
2023-01-26T07:56:16.084Z,5.83
2023-01-26T07:58:42.893Z,6.03
2023-01-26T08:01:11.916Z,5.60
2023-01-26T08:03:38.829Z,6.23
2023-01-26T08:06:07.050Z,7.03
2023-01-26T08:08:34.530Z,9.63
2023-01-26T08:11:02.192Z,7.97
2023-01-26T08:13:35.927Z,5.97
2023-01-26T08:16:12.806Z,5.13
2023-01-26T08:18:43.872Z,4.87
2023-01-26T08:21:11.898Z,4.13
2023-01-26T08:23:38.489Z,5.07
2023-01-26T08:26:08.543Z,5.80
2023-01-26T08:28:36.782Z,3.77
2023-01-26T08:31:11.457Z,4.50
2023-01-26T08:33:39.471Z,4.43
2023-01-26T08:36:09.284Z,3.70
2023-01-26T08:38:36.169Z,3.33
2023-01-26T08:41:03.390Z,3.93
2023-01-26T08:43:30.415Z,3.80
2023-01-26T08:45:57.844Z,5.20
2023-01-26T08:48:24.693Z,3.17
2023-01-26T08:50:59.232Z,4.80
2023-01-26T08:53:26.724Z,4.47
2023-01-26T08:55:53.261Z,3.67
2023-01-26T08:58:20.656Z,4.30
2023-01-26T09:00:47.338Z,4.73
2023-01-26T09:03:14.094Z,4.23
2023-01-26T09:05:40.798Z,4.80
2023-01-26T09:08:09.411Z,6.53
2023-01-26T09:10:38.527Z,4.93
2023-01-26T09:13:05.756Z,4.13
2023-01-26T09:15:32.339Z,6.20
2023-01-26T09:18:00.879Z,3.97
2023-01-26T09:20:27.901Z,4.60
2023-01-26T09:22:54.733Z,4.50
2023-01-26T09:25:21.311Z,4.80
2023-01-26T09:27:47.847Z,4.87
2023-01-26T09:30:14.886Z,3.60
2023-01-26T09:32:41.480Z,7.73
2023-01-26T09:35:14.163Z,5.40
2023-01-26T09:37:43.131Z,5.33
2023-01-26T09:40:18.393Z,5.40
2023-01-26T09:42:51.043Z,5.30
2023-01-26T09:45:26.989Z,4.90
2023-01-26T09:48:03.411Z,9.00
2023-01-26T09:50:41.808Z,6.77
2023-01-26T09:53:25.871Z,8.93
2023-01-26T09:55:54.077Z,8.17
2023-01-26T09:58:36.123Z,8.97
2023-01-26T10:01:04.334Z,8.93
2023-01-26T10:03:50.437Z,9.93
2023-01-26T10:06:28.471Z,9.70
2023-01-26T10:09:26.692Z,10.17
2023-01-26T10:12:00.592Z,9.20
2023-01-26T10:14:33.524Z,8.97
2023-01-26T10:17:01.704Z,9.33
2023-01-26T10:19:34.376Z,10.07
2023-01-26T10:22:08.173Z,9.70
2023-01-26T10:24:34.990Z,11.20
2023-01-26T10:27:01.580Z,10.00
2023-01-26T10:29:28.131Z,10.23
2023-01-26T10:31:55.470Z,11.93
2023-01-26T10:34:27.510Z,11.43
2023-01-26T10:37:13.345Z,11.63
2023-01-26T10:40:07.564Z,14.23
2023-01-26T10:42:36.168Z,12.37
2023-01-26T10:45:24.156Z,13.43
2023-01-26T10:48:05.818Z,13.43
2023-01-26T10:50:32.970Z,15.20
2023-01-26T10:53:02.160Z,12.87
2023-01-26T10:55:30.309Z,13.20
2023-01-26T10:57:57.623Z,13.13
2023-01-26T11:00:31.413Z,14.00
2023-01-26T11:03:13.368Z,16.00
2023-01-26T11:05:40.083Z,16.77
2023-01-26T11:08:34.625Z,16.77
2023-01-26T11:11:01.557Z,13.73
2023-01-26T11:13:28.058Z,16.53
2023-01-26T11:16:20.224Z,14.87
2023-01-26T11:19:04.554Z,15.10
2023-01-26T11:21:55.312Z,16.37
2023-01-26T11:24:46.655Z,16.13
2023-01-26T11:27:40.002Z,14.60
2023-01-26T11:30:20.929Z,16.37
2023-01-26T11:33:25.304Z,15.73
2023-01-26T11:36:01.196Z,18.60
2023-01-26T11:38:38.216Z,17.87
2023-01-26T11:41:20.106Z,22.97
2023-01-26T11:44:24.287Z,20.10
2023-01-26T11:47:18.834Z,22.47
2023-01-26T11:49:58.981Z,22.90
2023-01-26T11:52:48.686Z,23.13
2023-01-26T11:55:30.204Z,20.73
2023-01-26T11:58:21.102Z,21.37
2023-01-26T12:00:51.894Z,22.13
2023-01-26T12:03:48.035Z,18.80
2023-01-26T12:06:30.472Z,21.30
2023-01-26T12:09:03.153Z,23.77
2023-01-26T12:11:42.294Z,19.80
2023-01-26T12:14:25.898Z,21.07
2023-01-26T12:17:20.288Z,22.87
2023-01-26T12:20:21.210Z,18.40
2023-01-26T12:23:13.001Z,21.60
2023-01-26T12:25:50.676Z,20.87
2023-01-26T12:28:32.859Z,20.53
2023-01-26T12:31:23.869Z,23.00
2023-01-26T12:33:54.583Z,19.30
2023-01-26T12:36:44.881Z,21.50
2023-01-26T12:39:59.441Z,20.20
2023-01-26T12:42:47.740Z,19.40
2023-01-26T12:45:27.503Z,19.67
2023-01-26T12:48:02.292Z,23.13
2023-01-26T12:50:49.481Z,20.43
2023-01-26T12:53:32.267Z,25.77
2023-01-26T12:56:20.465Z,23.03
2023-01-26T12:58:50.040Z,22.47
2023-01-26T13:01:19.930Z,26.10
2023-01-26T13:03:58.717Z,26.47
2023-01-26T13:06:26.891Z,29.30
2023-01-26T13:09:22.649Z,25.97
2023-01-26T13:11:54.980Z,25.80
2023-01-26T13:14:57.889Z,24.97
2023-01-26T13:17:25.615Z,25.57
2023-01-26T13:19:54.517Z,27.27
2023-01-26T13:22:23.928Z,24.77
2023-01-26T13:24:57.415Z,25.83
2023-01-26T13:27:58.260Z,26.37
2023-01-26T13:30:24.771Z,29.10
2023-01-26T13:32:52.955Z,29.47
2023-01-26T13:35:26.197Z,28.90
2023-01-26T13:37:52.653Z,27.63
2023-01-26T13:40:23.798Z,28.93
2023-01-26T13:42:58.308Z,27.77
2023-01-26T13:45:33.963Z,25.10
2023-01-26T13:48:04.584Z,26.00
2023-01-26T13:50:38.961Z,30.27
2023-01-26T13:53:29.664Z,28.27
2023-01-26T13:56:01.121Z,24.37
2023-01-26T13:58:27.751Z,27.40
2023-01-26T14:00:59.502Z,26.70
2023-01-26T14:03:26.636Z,27.97
2023-01-26T14:06:08.915Z,27.87
2023-01-26T14:08:37.555Z,23.07
2023-01-26T14:11:06.037Z,26.87
2023-01-26T14:13:36.740Z,25.83
2023-01-26T14:16:06.194Z,24.53
2023-01-26T14:18:33.087Z,24.00
2023-01-26T14:21:05.865Z,26.17
2023-01-26T14:23:35.871Z,26.30
2023-01-26T14:26:28.580Z,28.83
2023-01-26T14:28:55.137Z,22.63
2023-01-26T14:31:23.406Z,22.80
2023-01-26T14:33:53.159Z,25.93
2023-01-26T14:36:20.687Z,23.97
2023-01-26T14:38:49.437Z,24.40
2023-01-26T14:41:22.833Z,24.13
2023-01-26T14:43:53.328Z,27.37
2023-01-26T14:46:30.291Z,30.40
2023-01-26T14:49:06.040Z,26.80
2023-01-26T14:51:34.903Z,22.90
2023-01-26T14:54:10.863Z,24.90
2023-01-26T14:56:39.360Z,24.13
2023-01-26T14:59:08.413Z,22.73
2023-01-26T15:01:35.445Z,20.53
2023-01-26T15:04:22.891Z,22.43
2023-01-26T15:06:49.447Z,20.03
2023-01-26T15:09:28.722Z,22.80
2023-01-26T15:12:16.885Z,18.63
2023-01-26T15:14:46.349Z,21.50
2023-01-26T15:17:42.109Z,22.10
2023-01-26T15:20:14.382Z,21.43
2023-01-26T15:22:42.015Z,25.37
2023-01-26T15:25:08.461Z,22.67
2023-01-26T15:27:36.595Z,24.03
2023-01-26T15:30:06.480Z,25.37
2023-01-26T15:32:39.460Z,25.53
2023-01-26T15:35:30.529Z,19.70
2023-01-26T15:38:05.158Z,25.13
2023-01-26T15:40:32.145Z,20.40
2023-01-26T15:43:11.921Z,21.40
2023-01-26T15:46:01.337Z,20.43
2023-01-26T15:48:31.599Z,24.17
2023-01-26T15:50:58.225Z,18.83
2023-01-26T15:53:24.654Z,21.67
2023-01-26T15:55:56.292Z,23.47
2023-01-26T15:58:23.826Z,17.90
2023-01-26T16:00:51.273Z,20.00
2023-01-26T16:03:19.911Z,20.37
2023-01-26T16:05:50.091Z,20.23
2023-01-26T16:08:17.887Z,18.60
2023-01-26T16:10:44.992Z,23.93
2023-01-26T16:13:13.170Z,20.53
2023-01-26T16:15:47.714Z,20.60
2023-01-26T16:18:14.800Z,20.23
2023-01-26T16:20:43.630Z,20.53
2023-01-26T16:23:31.840Z,20.87
2023-01-26T16:25:58.362Z,25.10
2023-01-26T16:28:24.839Z,21.70
2023-01-26T16:30:51.419Z,19.63
2023-01-26T16:33:24.526Z,20.77
2023-01-26T16:35:51.053Z,18.33
2023-01-26T16:38:17.566Z,19.00
2023-01-26T16:40:47.289Z,20.00
2023-01-26T16:43:21.412Z,22.60
2023-01-26T16:45:49.736Z,20.20
2023-01-26T16:48:17.130Z,18.67
2023-01-26T16:50:44.701Z,19.90
2023-01-26T16:53:33.005Z,21.27
2023-01-26T16:55:59.711Z,22.23
2023-01-26T16:58:26.591Z,21.80
2023-01-26T17:00:54.647Z,19.87
2023-01-26T17:03:21.337Z,18.37
2023-01-26T17:05:47.813Z,21.60
2023-01-26T17:08:14.263Z,24.03
2023-01-26T17:10:52.042Z,20.70
2023-01-26T17:13:27.156Z,20.23
2023-01-26T17:15:55.928Z,20.07
2023-01-26T17:18:22.553Z,23.57
2023-01-26T17:20:49.031Z,20.73
2023-01-26T17:23:15.537Z,20.83
2023-01-26T17:25:42.159Z,20.13
2023-01-26T17:28:08.637Z,18.67
2023-01-26T17:30:35.247Z,20.83
2023-01-26T17:33:01.953Z,19.70
2023-01-26T17:35:28.454Z,29.10
2023-01-26T17:37:55.267Z,27.77
2023-01-26T17:40:21.829Z,29.37
2023-01-26T17:42:48.268Z,20.53
2023-01-26T17:45:14.971Z,25.37
2023-01-26T17:47:41.517Z,24.70
2023-01-26T17:50:08.578Z,23.77
2023-01-26T17:52:36.456Z,24.70
2023-01-26T17:55:05.966Z,21.00
2023-01-26T17:57:33.328Z,21.87
2023-01-26T17:59:59.881Z,21.67
2023-01-26T18:02:26.550Z,24.90
2023-01-26T18:04:53.106Z,17.53
2023-01-26T18:07:19.720Z,23.90
2023-01-26T18:09:46.370Z,23.73
2023-01-26T18:12:12.852Z,23.30
2023-01-26T18:14:39.367Z,23.90
2023-01-26T18:17:05.797Z,27.23
2023-01-26T18:19:32.294Z,21.00
2023-01-26T18:21:58.771Z,23.87
2023-01-26T18:24:25.447Z,26.87
2023-01-26T18:26:52.073Z,25.30
2023-01-26T18:29:18.540Z,33.87
2023-01-26T18:31:44.999Z,26.00
2023-01-26T18:34:11.838Z,23.63
2023-01-26T18:36:38.924Z,26.90
2023-01-26T18:39:08.351Z,26.83
2023-01-26T18:41:35.248Z,27.07
2023-01-26T18:44:03.607Z,25.73
2023-01-26T18:46:33.058Z,25.03
2023-01-26T18:49:03.475Z,27.27
2023-01-26T18:51:32.503Z,29.17
2023-01-26T18:53:59.315Z,25.13
2023-01-26T18:56:26.696Z,26.00
2023-01-26T18:58:54.019Z,25.20
2023-01-26T19:01:21.439Z,28.90
2023-01-26T19:03:53.940Z,24.47
2023-01-26T19:06:20.917Z,29.93
2023-01-26T19:08:58.320Z,35.43
2023-01-26T19:11:30.741Z,31.47
2023-01-26T19:13:58.070Z,34.77
2023-01-26T19:16:24.919Z,33.23
2023-01-26T19:18:52.196Z,34.73
2023-01-26T19:21:24.283Z,32.90
2023-01-26T19:23:52.559Z,34.03
2023-01-26T19:26:21.953Z,31.43
2023-01-26T19:28:51.003Z,31.20
2023-01-26T19:31:21.604Z,30.77
2023-01-26T19:33:57.160Z,35.07
2023-01-26T19:36:24.849Z,32.20
2023-01-26T19:38:51.728Z,30.73
2023-01-26T19:41:20.114Z,32.47
2023-01-26T19:43:47.122Z,31.10
2023-01-26T19:46:14.715Z,28.80
2023-01-26T19:48:41.369Z,31.20
2023-01-26T19:51:11.908Z,34.90
2023-01-26T19:53:41.249Z,31.80
2023-01-26T19:56:09.692Z,35.57
2023-01-26T19:58:36.548Z,34.33
2023-01-26T20:01:11.784Z,34.20
2023-01-26T20:03:39.259Z,32.20
2023-01-26T20:06:13.063Z,33.43
2023-01-26T20:08:39.585Z,37.00
2023-01-26T20:11:07.233Z,35.20
2023-01-26T20:13:34.583Z,30.53
2023-01-26T20:16:02.139Z,34.10
2023-01-26T20:18:28.612Z,35.90
2023-01-26T20:20:56.710Z,33.63
2023-01-26T20:23:24.773Z,37.40
2023-01-26T20:25:51.677Z,33.83
2023-01-26T20:28:18.937Z,35.67
2023-01-26T20:30:45.534Z,37.27
2023-01-26T20:33:12.423Z,30.37
2023-01-26T20:35:40.374Z,40.00
2023-01-26T20:38:06.838Z,42.40
2023-01-26T20:40:33.288Z,40.30
2023-01-26T20:42:59.786Z,46.30
2023-01-26T20:45:26.440Z,46.37
2023-01-26T20:47:53.142Z,41.73
2023-01-26T20:50:19.633Z,53.97
2023-01-26T20:52:46.611Z,51.50
2023-01-26T20:55:13.204Z,40.97
2023-01-26T20:57:39.974Z,39.33
2023-01-26T21:00:07.233Z,41.07
2023-01-26T21:02:33.814Z,41.93
2023-01-26T21:05:00.671Z,39.57
2023-01-26T21:07:28.551Z,35.10
2023-01-26T21:09:55.100Z,42.90
2023-01-26T21:12:21.556Z,44.47
2023-01-26T21:14:48.165Z,45.77
2023-01-26T21:17:15.658Z,44.10
2023-01-26T21:19:42.128Z,39.30
2023-01-26T21:22:08.573Z,43.10
2023-01-26T21:24:35.619Z,46.00
2023-01-26T21:27:02.690Z,49.17
2023-01-26T21:29:29.215Z,42.50
2023-01-26T21:31:55.838Z,43.63
2023-01-26T21:34:22.325Z,43.33
2023-01-26T21:36:48.754Z,47.73
2023-01-26T21:39:15.331Z,49.93
2023-01-26T21:41:56.917Z,51.60
2023-01-26T21:44:25.719Z,53.23
2023-01-26T21:46:55.216Z,48.70
2023-01-26T21:49:22.976Z,45.43
2023-01-26T21:52:08.475Z,44.20
2023-01-26T21:54:35.568Z,44.27
2023-01-26T21:57:03.781Z,39.53
2023-01-26T21:59:30.723Z,44.13
2023-01-26T22:01:58.388Z,38.77
2023-01-26T22:04:30.223Z,42.23
2023-01-26T22:06:57.018Z,49.80
2023-01-26T22:09:24.171Z,40.37
2023-01-26T22:11:51.361Z,73.70
2023-01-26T22:14:21.689Z,65.47
2023-01-26T22:16:48.927Z,57.13
2023-01-26T22:19:15.542Z,48.83
2023-01-26T22:21:41.996Z,52.93
2023-01-26T22:24:11.879Z,46.80
2023-01-26T22:26:39.688Z,57.97
2023-01-26T22:29:07.085Z,49.70
2023-01-26T22:31:33.976Z,50.93
2023-01-26T22:34:01.103Z,60.00
2023-01-26T22:36:28.394Z,44.33
2023-01-26T22:38:55.243Z,47.17
2023-01-26T22:41:24.738Z,41.73
2023-01-26T22:43:54.255Z,45.27
2023-01-26T22:46:22.606Z,45.97
2023-01-26T22:48:50.166Z,43.93
2023-01-26T22:51:22.666Z,49.87
2023-01-26T22:53:50.704Z,44.60
2023-01-26T22:56:18.589Z,40.83
2023-01-26T22:58:57.685Z,47.10
2023-01-26T23:01:27.490Z,43.10
2023-01-26T23:03:55.608Z,45.47
2023-01-26T23:06:22.494Z,45.53
2023-01-26T23:08:49.240Z,46.27
2023-01-26T23:11:19.962Z,47.57
2023-01-26T23:13:48.023Z,47.90
2023-01-26T23:16:15.280Z,59.57
2023-01-26T23:18:42.375Z,69.13
2023-01-26T23:21:09.867Z,60.47
2023-01-26T23:23:36.469Z,52.03
2023-01-26T23:26:03.403Z,56.90
2023-01-26T23:28:33.318Z,50.83
2023-01-26T23:31:01.011Z,50.63
2023-01-26T23:33:30.063Z,52.10
2023-01-26T23:35:57.000Z,60.90
2023-01-26T23:38:25.945Z,58.63
2023-01-26T23:40:52.829Z,56.33
2023-01-26T23:43:19.508Z,51.07
2023-01-26T23:45:47.240Z,51.47
2023-01-26T23:48:14.434Z,53.03
2023-01-26T23:50:41.312Z,55.67
2023-01-26T23:53:08.188Z,54.50
2023-01-26T23:55:35.330Z,58.00
2023-01-26T23:58:01.830Z,62.57
